createdAt,value
2022-08-09T00:01:40.310Z,5.32
2022-08-09T00:04:33.987Z,5.43
2022-08-09T00:07:10.383Z,5.75
2022-08-09T00:09:39.883Z,5.53
2022-08-09T00:12:09.221Z,5.30
2022-08-09T00:14:56.726Z,6.40
2022-08-09T00:18:05.488Z,5.55
2022-08-09T00:20:15.418Z,5.32
2022-08-09T00:22:44.855Z,6.05
2022-08-09T00:25:23.033Z,5.40
2022-08-09T00:28:00.505Z,5.70
2022-08-09T00:30:34.060Z,5.30
2022-08-09T00:33:02.525Z,4.93
2022-08-09T00:35:42.868Z,5.82
2022-08-09T00:38:12.989Z,4.82
2022-08-09T00:40:41.676Z,5.75
2022-08-09T00:44:19.305Z,5.13
2022-08-09T00:46:28.387Z,5.65
2022-08-09T00:49:01.820Z,5.15
2022-08-09T00:51:33.855Z,5.55
2022-08-09T00:54:11.481Z,5.13
2022-08-09T00:56:39.932Z,5.05
2022-08-09T00:59:10.214Z,5.30
2022-08-09T01:01:44.615Z,5.68
2022-08-09T01:04:23.401Z,4.85
2022-08-09T01:07:05.259Z,5.32
2022-08-09T01:09:41.426Z,5.63
2022-08-09T01:12:18.960Z,5.57
2022-08-09T01:14:54.082Z,4.90
2022-08-09T01:17:34.304Z,5.75
2022-08-09T01:20:06.959Z,4.75
2022-08-09T01:22:55.027Z,5.63
2022-08-09T01:25:41.868Z,5.60
2022-08-09T01:28:13.027Z,5.85
2022-08-09T01:30:51.516Z,5.13
2022-08-09T01:33:27.306Z,5.43
2022-08-09T01:36:05.348Z,5.60
2022-08-09T01:38:39.980Z,5.40
2022-08-09T01:41:13.243Z,5.60
2022-08-09T01:43:50.640Z,5.70
2022-08-09T01:46:25.163Z,5.72
2022-08-09T01:48:59.813Z,5.70
2022-08-09T01:51:32.159Z,5.63
2022-08-09T01:54:04.328Z,5.60
2022-08-09T01:56:34.425Z,6.32
2022-08-09T01:59:10.825Z,5.80
2022-08-09T02:01:59.772Z,6.32
2022-08-09T02:04:32.943Z,6.32
2022-08-09T02:07:18.074Z,6.05
2022-08-09T02:10:09.603Z,6.03
2022-08-09T02:12:40.069Z,5.90
2022-08-09T02:15:17.022Z,6.10
2022-08-09T02:18:00.425Z,6.15
2022-08-09T02:20:42.580Z,6.30
2022-08-09T02:23:18.765Z,6.65
2022-08-09T02:25:55.921Z,6.85
2022-08-09T02:28:31.473Z,6.03
2022-08-09T02:31:05.849Z,6.68
2022-08-09T02:34:07.467Z,6.68
2022-08-09T02:36:33.521Z,5.97
2022-08-09T02:39:06.650Z,6.53
2022-08-09T02:41:45.974Z,6.68
2022-08-09T02:44:29.153Z,6.63
2022-08-09T02:47:04.451Z,6.55
2022-08-09T02:49:38.377Z,6.25
2022-08-09T02:52:13.602Z,6.65
2022-08-09T02:54:54.353Z,5.35
2022-08-09T02:57:27.152Z,7.22
2022-08-09T03:00:20.721Z,6.97
2022-08-09T03:02:59.721Z,6.80
2022-08-09T03:05:34.193Z,6.68
2022-08-09T03:08:04.633Z,6.60
2022-08-09T03:10:35.996Z,7.22
2022-08-09T03:13:08.423Z,6.90
2022-08-09T03:16:06.789Z,6.93
2022-08-09T03:18:31.610Z,6.35
2022-08-09T03:21:03.019Z,6.50
2022-08-09T03:23:32.042Z,7.05
2022-08-09T03:26:03.627Z,6.90
2022-08-09T03:28:35.043Z,6.95
2022-08-09T03:31:10.498Z,6.05
2022-08-09T03:33:54.128Z,6.45
2022-08-09T03:36:27.611Z,7.07
2022-08-09T03:38:57.797Z,6.55
2022-08-09T03:41:29.934Z,6.82
2022-08-09T03:44:15.533Z,6.55
2022-08-09T03:46:45.016Z,6.88
2022-08-09T03:49:19.214Z,6.63
2022-08-09T03:51:58.864Z,5.90
2022-08-09T03:54:34.432Z,5.90
2022-08-09T03:57:18.725Z,5.32
2022-08-09T03:59:54.360Z,5.75
2022-08-09T04:02:28.190Z,6.00
2022-08-09T04:05:06.458Z,5.93
2022-08-09T04:07:53.555Z,5.90
2022-08-09T04:10:29.195Z,5.57
2022-08-09T04:13:02.651Z,5.00
2022-08-09T04:15:42.797Z,5.15
2022-08-09T04:18:22.424Z,5.00
2022-08-09T04:20:55.551Z,4.90
2022-08-09T04:23:25.754Z,4.32
2022-08-09T04:25:55.760Z,5.32
2022-08-09T04:28:34.099Z,4.72
2022-08-09T04:31:08.177Z,4.72
2022-08-09T04:33:52.333Z,4.70
2022-08-09T04:36:26.017Z,4.75
2022-08-09T04:38:55.590Z,4.50
2022-08-09T04:41:32.207Z,4.72
2022-08-09T04:44:07.349Z,4.30
2022-08-09T04:46:57.334Z,4.25
2022-08-09T04:49:53.240Z,4.53
2022-08-09T04:52:27.082Z,6.60
2022-08-09T04:55:07.248Z,6.03
2022-08-09T04:57:53.899Z,6.05
2022-08-09T05:00:31.927Z,5.15
2022-08-09T05:03:12.762Z,5.13
2022-08-09T05:06:07.091Z,4.70
2022-08-09T05:08:37.468Z,4.50
2022-08-09T05:11:07.747Z,4.30
2022-08-09T05:13:38.775Z,4.20
2022-08-09T05:16:10.180Z,4.22
2022-08-09T05:18:57.623Z,4.40
2022-08-09T05:21:30.095Z,4.03
2022-08-09T05:24:09.074Z,4.00
2022-08-09T05:26:46.178Z,3.90
2022-08-09T05:29:21.994Z,3.88
2022-08-09T05:31:56.405Z,4.30
2022-08-09T05:34:30.597Z,4.38
2022-08-09T05:37:11.282Z,4.50
2022-08-09T05:39:44.732Z,4.25
2022-08-09T05:42:17.677Z,3.80
2022-08-09T05:44:52.503Z,4.55
2022-08-09T05:47:22.712Z,4.40
2022-08-09T05:50:25.157Z,4.60
2022-08-09T05:52:41.858Z,4.45
2022-08-09T05:55:18.226Z,4.15
2022-08-09T05:57:50.891Z,4.07
2022-08-09T06:00:28.996Z,4.35
2022-08-09T06:03:01.537Z,4.93
2022-08-09T06:05:56.970Z,4.32
2022-08-09T06:08:25.182Z,4.43
2022-08-09T06:10:57.054Z,4.28
2022-08-09T06:13:28.621Z,4.35
2022-08-09T06:16:04.921Z,4.25
2022-08-09T06:18:34.413Z,3.67
2022-08-09T06:21:04.241Z,3.90
2022-08-09T06:23:58.662Z,4.20
2022-08-09T06:26:28.366Z,3.60
2022-08-09T06:29:00.282Z,3.10
2022-08-09T06:31:40.265Z,3.42
2022-08-09T06:34:19.162Z,3.28
2022-08-09T06:36:47.780Z,3.58
2022-08-09T06:39:17.664Z,3.22
2022-08-09T06:42:08.683Z,3.10
2022-08-09T06:44:38.897Z,3.42
2022-08-09T06:47:08.412Z,3.50
2022-08-09T06:50:11.475Z,4.68
2022-08-09T06:52:25.616Z,5.50
2022-08-09T06:54:54.357Z,5.05
2022-08-09T06:58:01.868Z,5.45
2022-08-09T07:00:54.165Z,5.38
2022-08-09T07:03:05.449Z,5.70
2022-08-09T07:05:58.185Z,5.45
2022-08-09T07:08:24.798Z,5.18
2022-08-09T07:10:53.713Z,5.15
2022-08-09T07:13:27.975Z,4.70
2022-08-09T07:16:42.478Z,4.50
2022-08-09T07:18:47.589Z,4.43
2022-08-09T07:21:18.844Z,4.43
2022-08-09T07:23:57.754Z,4.03
2022-08-09T07:26:27.019Z,4.38
2022-08-09T07:29:08.935Z,4.00
2022-08-09T07:31:45.313Z,4.03
2022-08-09T07:34:20.304Z,3.70
2022-08-09T07:36:50.650Z,3.92
2022-08-09T07:39:41.616Z,4.20
2022-08-09T07:42:11.520Z,3.92
2022-08-09T07:44:51.965Z,4.45
2022-08-09T07:47:23.532Z,6.10
2022-08-09T07:50:08.331Z,3.90
2022-08-09T07:52:38.522Z,4.13
2022-08-09T07:55:09.507Z,4.10
2022-08-09T07:57:47.318Z,4.22
2022-08-09T08:00:20.853Z,3.88
2022-08-09T08:03:08.450Z,3.40
2022-08-09T08:05:53.511Z,3.60
2022-08-09T08:09:01.542Z,4.20
2022-08-09T08:12:10.852Z,4.25
2022-08-09T08:14:01.884Z,4.63
2022-08-09T08:16:33.069Z,4.18
2022-08-09T08:19:04.358Z,3.90
2022-08-09T08:21:33.673Z,3.70
2022-08-09T08:24:12.238Z,3.50
2022-08-09T08:26:54.660Z,3.92
2022-08-09T08:29:28.216Z,3.25
2022-08-09T08:32:03.336Z,3.03
2022-08-09T08:34:33.666Z,3.13
2022-08-09T08:37:03.357Z,3.35
2022-08-09T08:39:39.966Z,2.45
2022-08-09T08:42:12.922Z,2.83
2022-08-09T08:44:43.726Z,2.60
2022-08-09T08:47:15.891Z,2.92
2022-08-09T08:49:47.232Z,2.17
2022-08-09T08:55:08.602Z,2.90
2022-08-09T08:57:38.038Z,2.35
2022-08-09T09:00:16.951Z,2.65
2022-08-09T09:02:53.695Z,2.30
2022-08-09T09:05:57.378Z,2.33
2022-08-09T09:08:31.009Z,1.83
2022-08-09T09:11:03.660Z,2.00
2022-08-09T09:13:55.735Z,1.90
2022-08-09T09:16:30.629Z,2.05
2022-08-09T09:22:00.716Z,1.80
2022-08-09T09:24:34.662Z,1.95
2022-08-09T09:27:05.723Z,1.88
2022-08-09T09:30:08.417Z,2.00
2022-08-09T09:32:32.201Z,2.03
2022-08-09T09:35:07.586Z,1.65
2022-08-09T09:37:40.346Z,1.60
2022-08-09T09:40:12.271Z,1.80
2022-08-09T09:42:43.123Z,1.70
2022-08-09T09:45:26.877Z,1.60
2022-08-09T09:47:58.529Z,1.35
2022-08-09T09:50:50.703Z,1.67
2022-08-09T09:53:25.211Z,1.60
2022-08-09T09:56:19.811Z,1.70
2022-08-09T09:59:00.188Z,2.05
2022-08-09T10:01:36.796Z,1.55
2022-08-09T10:04:16.342Z,2.08
2022-08-09T10:07:03.627Z,1.50
2022-08-09T10:09:55.038Z,1.65
2022-08-09T10:12:31.336Z,1.95
2022-08-09T10:15:25.365Z,1.65
2022-08-09T10:17:56.402Z,1.60
2022-08-09T10:20:32.442Z,1.60
2022-08-09T10:23:21.095Z,1.60
2022-08-09T10:26:05.971Z,1.42
2022-08-09T10:28:38.750Z,1.55
2022-08-09T10:34:11.215Z,1.35
2022-08-09T10:36:46.866Z,1.73
2022-08-09T10:39:19.951Z,1.60
2022-08-09T10:41:48.627Z,1.73
2022-08-09T10:44:24.767Z,1.40
2022-08-09T10:48:13.315Z,1.67
2022-08-09T10:50:14.928Z,1.63
2022-08-09T10:53:05.224Z,1.65
2022-08-09T10:55:58.922Z,1.80
2022-08-09T10:58:33.693Z,1.52
2022-08-09T11:03:05.646Z,1.58
2022-08-09T11:04:30.922Z,1.65
2022-08-09T11:07:57.869Z,1.55
2022-08-09T11:11:00.914Z,1.88
2022-08-09T11:13:50.085Z,2.40
2022-08-09T11:16:37.438Z,1.90
2022-08-09T11:19:10.082Z,1.98
2022-08-09T11:22:10.852Z,2.10
2022-08-09T11:25:08.403Z,1.90
2022-08-09T11:28:05.637Z,2.10
2022-08-09T11:30:38.163Z,2.08
2022-08-09T11:33:11.238Z,1.80
2022-08-09T11:35:49.067Z,1.80
2022-08-09T11:38:22.588Z,2.10
2022-08-09T11:41:05.459Z,1.75
2022-08-09T11:43:43.206Z,1.88
2022-08-09T11:46:12.020Z,1.90
2022-08-09T11:48:52.290Z,1.80
2022-08-09T11:53:16.565Z,1.90
2022-08-09T11:54:21.549Z,2.10
2022-08-09T11:57:59.929Z,1.67
2022-08-09T12:00:27.674Z,1.88
2022-08-09T12:02:58.040Z,1.70
2022-08-09T12:05:42.410Z,1.60
2022-08-09T12:08:21.403Z,1.60
2022-08-09T12:10:52.893Z,1.95
2022-08-09T12:14:07.803Z,1.70
2022-08-09T12:16:30.547Z,1.80
2022-08-09T12:19:09.566Z,1.58
2022-08-09T12:21:50.808Z,1.90
2022-08-09T12:24:25.116Z,1.85
2022-08-09T12:29:09.976Z,2.00
2022-08-09T12:30:04.054Z,1.58
2022-08-09T12:32:48.372Z,1.63
2022-08-09T12:35:21.729Z,1.85
2022-08-09T12:37:52.007Z,1.85
2022-08-09T12:40:26.914Z,1.60
2022-08-09T12:42:57.237Z,1.65
2022-08-09T12:45:33.822Z,1.85
2022-08-09T12:48:20.070Z,1.83
2022-08-09T12:50:59.661Z,1.60
2022-08-09T12:53:37.110Z,1.85
2022-08-09T12:56:43.762Z,1.60
2022-08-09T12:59:10.548Z,1.80
2022-08-09T13:01:46.886Z,2.00
2022-08-09T13:04:36.807Z,2.30
2022-08-09T13:07:16.683Z,1.50
2022-08-09T13:09:55.380Z,2.10
2022-08-09T13:12:32.709Z,2.20
2022-08-09T13:15:10.472Z,2.30
2022-08-09T13:17:58.705Z,1.83
2022-08-09T13:22:34.112Z,2.00
2022-08-09T13:24:07.269Z,2.10
2022-08-09T13:26:36.740Z,1.85
2022-08-09T13:29:13.063Z,1.90
2022-08-09T13:32:17.448Z,2.10
2022-08-09T13:34:47.393Z,2.20
2022-08-09T13:37:24.790Z,2.35
2022-08-09T13:41:51.051Z,1.80
2022-08-09T13:42:58.228Z,2.10
2022-08-09T13:45:32.611Z,2.15
2022-08-09T13:48:15.651Z,1.92
2022-08-09T13:50:44.565Z,2.42
2022-08-09T13:53:18.239Z,2.05
2022-08-09T13:55:47.921Z,2.03
2022-08-09T13:58:16.850Z,2.28
2022-08-09T14:00:50.504Z,2.13
2022-08-09T14:04:05.028Z,2.30
2022-08-09T14:06:19.554Z,2.78
2022-08-09T14:08:56.480Z,2.13
2022-08-09T14:11:26.831Z,2.40
2022-08-09T14:14:23.758Z,2.40
2022-08-09T14:16:44.056Z,2.30
2022-08-09T14:19:12.687Z,2.10
2022-08-09T14:21:41.394Z,1.88
2022-08-09T14:24:18.652Z,2.70
2022-08-09T14:26:51.793Z,1.95
2022-08-09T14:30:15.156Z,2.40
2022-08-09T14:32:13.374Z,2.13
2022-08-09T14:34:55.374Z,1.83
2022-08-09T14:37:28.495Z,2.22
2022-08-09T14:40:12.445Z,2.25
2022-08-09T14:42:41.562Z,2.22
2022-08-09T14:46:46.674Z,2.35
2022-08-09T14:48:02.539Z,1.95
2022-08-09T14:50:34.480Z,2.00
2022-08-09T14:53:11.135Z,2.20
2022-08-09T14:55:47.697Z,2.65
2022-08-09T14:58:19.269Z,2.30
2022-08-09T15:00:51.106Z,2.03
2022-08-09T15:03:21.287Z,1.77
2022-08-09T15:05:53.808Z,2.20
2022-08-09T15:08:25.278Z,3.00
2022-08-09T15:11:00.906Z,2.40
2022-08-09T15:13:48.691Z,2.00
2022-08-09T15:16:22.485Z,2.17
2022-08-09T15:18:52.216Z,2.30
2022-08-09T15:21:57.107Z,1.88
2022-08-09T15:24:13.919Z,1.75
2022-08-09T15:26:47.513Z,1.52
2022-08-09T15:30:58.947Z,2.00
2022-08-09T15:32:29.162Z,1.70
2022-08-09T15:35:00.562Z,2.20
2022-08-09T15:38:10.997Z,1.73
2022-08-09T15:40:32.291Z,1.92
2022-08-09T15:43:03.493Z,2.00
2022-08-09T15:46:07.576Z,2.15
2022-08-09T15:48:28.703Z,1.85
2022-08-09T15:50:58.161Z,2.33
2022-08-09T15:54:03.985Z,2.13
2022-08-09T15:56:29.400Z,1.90
2022-08-09T15:59:01.135Z,2.67
2022-08-09T16:01:31.434Z,2.10
2022-08-09T16:04:04.393Z,1.88
2022-08-09T16:06:35.642Z,1.83
2022-08-09T16:09:07.055Z,1.70
2022-08-09T16:11:35.725Z,1.90
2022-08-09T16:14:08.115Z,1.60
2022-08-09T16:16:39.080Z,1.60
2022-08-09T16:19:13.412Z,1.90
2022-08-09T16:21:48.739Z,2.03
2022-08-09T16:24:33.678Z,1.90
2022-08-09T16:27:05.162Z,2.00
2022-08-09T16:29:37.482Z,1.70
2022-08-09T16:32:35.017Z,1.80
2022-08-09T16:35:04.012Z,2.33
2022-08-09T16:37:55.202Z,1.83
2022-08-09T16:40:29.710Z,1.88
2022-08-09T16:43:08.799Z,1.80
2022-08-09T16:45:44.370Z,1.63
2022-08-09T16:48:39.467Z,2.03
2022-08-09T16:51:07.912Z,1.85
2022-08-09T16:54:02.431Z,1.75
2022-08-09T16:56:31.534Z,1.70
2022-08-09T16:59:01.089Z,1.70
2022-08-09T17:01:33.883Z,1.75
2022-08-09T17:04:05.430Z,1.83
2022-08-09T17:08:40.958Z,1.75
2022-08-09T17:09:46.195Z,1.98
2022-08-09T17:12:12.869Z,1.98
2022-08-09T17:14:47.664Z,2.08
2022-08-09T17:17:26.369Z,1.95
2022-08-09T17:20:29.220Z,2.15
2022-08-09T17:22:52.257Z,1.80
2022-08-09T17:25:23.677Z,2.03
2022-08-09T17:27:54.869Z,1.80
2022-08-09T17:30:25.871Z,2.08
2022-08-09T17:33:04.866Z,1.77
2022-08-09T17:35:41.100Z,2.47
2022-08-09T17:38:13.254Z,1.90
2022-08-09T17:40:58.581Z,2.08
2022-08-09T17:43:34.357Z,2.33
2022-08-09T17:46:07.541Z,2.63
2022-08-09T17:48:51.895Z,2.05
2022-08-09T17:51:22.720Z,2.28
2022-08-09T17:53:55.081Z,2.63
2022-08-09T17:56:28.458Z,2.28
2022-08-09T17:58:59.789Z,2.03
2022-08-09T18:02:03.702Z,2.78
2022-08-09T18:04:20.699Z,1.98
2022-08-09T18:06:54.617Z,2.05
2022-08-09T18:09:40.332Z,2.05
2022-08-09T18:12:17.147Z,2.30
2022-08-09T18:14:54.904Z,2.35
2022-08-09T18:18:01.204Z,2.60
2022-08-09T18:20:54.999Z,3.10
2022-08-09T18:23:07.092Z,2.55
2022-08-09T18:25:51.076Z,2.88
2022-08-09T18:30:35.613Z,2.65
2022-08-09T18:31:14.215Z,2.38
2022-08-09T18:33:53.198Z,2.70
2022-08-09T18:36:31.839Z,2.35
2022-08-09T18:39:02.024Z,2.47
2022-08-09T18:41:34.327Z,2.78
2022-08-09T18:44:12.608Z,2.78
2022-08-09T18:46:47.090Z,2.58
2022-08-09T18:49:20.277Z,2.20
2022-08-09T18:51:55.544Z,2.03
2022-08-09T18:54:29.741Z,2.15
2022-08-09T18:57:06.011Z,2.13
2022-08-09T18:59:48.577Z,2.72
2022-08-09T19:02:18.695Z,2.20
2022-08-09T19:05:14.791Z,2.53
2022-08-09T19:07:38.512Z,2.80
2022-08-09T19:10:15.720Z,2.55
2022-08-09T19:12:51.457Z,2.85
2022-08-09T19:15:36.239Z,3.05
2022-08-09T19:18:05.903Z,2.83
2022-08-09T19:20:45.516Z,2.35
2022-08-09T19:24:33.532Z,2.65
2022-08-09T19:26:15.960Z,2.75
2022-08-09T19:28:48.899Z,2.75
2022-08-09T19:31:17.709Z,3.00
2022-08-09T19:33:46.294Z,2.90
2022-08-09T19:36:14.923Z,2.80
2022-08-09T19:38:50.102Z,2.58
2022-08-09T19:41:33.199Z,3.42
2022-08-09T19:44:04.398Z,2.72
2022-08-09T19:46:35.759Z,3.08
2022-08-09T19:50:07.498Z,2.58
2022-08-09T19:52:10.054Z,2.90
2022-08-09T19:54:42.369Z,2.95
2022-08-09T19:57:11.708Z,3.20
2022-08-09T20:00:06.627Z,3.00
2022-08-09T20:04:08.158Z,3.05
2022-08-09T20:05:26.816Z,2.83
2022-08-09T20:07:58.523Z,3.55
2022-08-09T20:10:34.755Z,3.08
2022-08-09T20:13:08.045Z,3.20
2022-08-09T20:16:34.152Z,3.20
2022-08-09T20:18:28.172Z,3.10
2022-08-09T20:20:57.816Z,3.50
2022-08-09T20:23:38.833Z,3.33
2022-08-09T20:26:13.001Z,3.67
2022-08-09T20:28:48.871Z,3.60
2022-08-09T20:31:19.090Z,3.65
2022-08-09T20:33:52.414Z,3.72
2022-08-09T20:36:28.337Z,3.53
2022-08-09T20:39:27.976Z,3.67
2022-08-09T20:41:49.134Z,3.28
2022-08-09T20:44:26.919Z,4.00
2022-08-09T20:46:57.793Z,3.67
2022-08-09T20:49:28.526Z,3.35
2022-08-09T20:51:57.805Z,3.22
2022-08-09T20:54:29.143Z,4.05
2022-08-09T20:56:59.944Z,3.92
2022-08-09T21:00:20.726Z,3.50
2022-08-09T21:02:18.681Z,3.83
2022-08-09T21:05:51.133Z,4.05
2022-08-09T21:07:38.856Z,4.22
2022-08-09T21:10:12.012Z,4.10
2022-08-09T21:15:34.627Z,3.70
2022-08-09T21:18:23.029Z,4.10
2022-08-09T21:20:54.381Z,4.40
2022-08-09T21:23:26.599Z,4.32
2022-08-09T21:26:12.361Z,4.57
2022-08-09T21:28:55.528Z,4.22
2022-08-09T21:31:49.252Z,4.15
2022-08-09T21:34:16.191Z,4.20
2022-08-09T21:36:56.964Z,4.45
2022-08-09T21:39:27.988Z,4.32
2022-08-09T21:42:10.995Z,4.10
2022-08-09T21:44:42.856Z,4.45
2022-08-09T21:47:17.345Z,4.95
2022-08-09T21:49:48.218Z,4.72
2022-08-09T21:52:20.660Z,4.45
2022-08-09T21:55:04.337Z,4.80
2022-08-09T21:57:38.519Z,5.40
2022-08-09T22:00:32.114Z,4.43
2022-08-09T22:03:04.749Z,4.82
2022-08-09T22:05:37.226Z,4.55
2022-08-09T22:08:13.248Z,4.63
2022-08-09T22:11:49.742Z,4.63
2022-08-09T22:13:34.753Z,4.60
2022-08-09T22:16:08.368Z,5.22
2022-08-09T22:18:38.380Z,4.30
2022-08-09T22:21:22.139Z,4.78
2022-08-09T22:24:01.560Z,5.53
2022-08-09T22:26:34.988Z,4.95
2022-08-09T22:29:09.428Z,5.13
2022-08-09T22:31:50.336Z,4.68
2022-08-09T22:34:26.479Z,4.70
2022-08-09T22:36:55.999Z,4.95
2022-08-09T22:39:55.545Z,5.18
2022-08-09T22:42:21.943Z,5.38
2022-08-09T22:45:00.310Z,5.85
2022-08-09T22:48:34.689Z,5.32
2022-08-09T22:50:32.931Z,6.43
2022-08-09T22:53:03.701Z,6.13
2022-08-09T22:56:06.395Z,5.45
2022-08-09T22:58:32.426Z,5.55
2022-08-09T23:01:03.401Z,5.30
2022-08-09T23:04:03.399Z,5.95
2022-08-09T23:06:32.604Z,5.50
2022-08-09T23:09:07.873Z,5.40
2022-08-09T23:11:36.458Z,5.82
2022-08-09T23:14:10.105Z,5.95
2022-08-09T23:16:46.230Z,6.18
2022-08-09T23:19:16.000Z,6.68
2022-08-09T23:21:44.630Z,6.20
2022-08-09T23:24:13.157Z,6.18
2022-08-09T23:26:41.996Z,6.30
2022-08-09T23:29:13.851Z,5.65
2022-08-09T23:31:43.271Z,6.63
2022-08-09T23:34:11.877Z,6.85
2022-08-09T23:36:41.677Z,6.45
2022-08-09T23:39:10.244Z,6.90
2022-08-09T23:41:38.789Z,5.90
2022-08-09T23:44:07.330Z,6.75
2022-08-09T23:46:35.939Z,6.55
2022-08-09T23:49:04.888Z,6.40
2022-08-09T23:51:33.347Z,6.85
2022-08-09T23:54:03.630Z,6.60
2022-08-09T23:56:52.979Z,7.50
2022-08-09T23:59:23.143Z,7.15
